.
WxDataArchive / Data Records for 2009-03-12
2009-03-11 March 2009 2009-03-13

Data Records for Thursday, 12 March 2009

Time	Temp	Chill	HIndex	Humid	Dewpt	 Wind 	HiWind	WindDir	Rain 	Barom 
-----	----	-----	------	-----	-----	------	------	-------	-----	----- 
00:00	28.1	28.1	28.1	64	17.5	2	4	315	0.00	30.566 
00:05	27.8	27.8	27.8	62	16.5	3	9	315	0.00	30.567 
00:10	27.6	27.6	27.6	62	16.3	1	3	338	0.00	30.567 
00:15	27.5	27.5	27.5	61	15.8	1	4	315	0.00	30.567 
00:20	27.5	27.5	27.5	61	15.8	1	4	338	0.00	30.570 
00:25	27.3	27.3	27.3	60	15.3	1	5	22	0.00	30.568 
00:30	27.3	27.3	27.3	59	14.9	2	6	315	0.00	30.574 
00:35	27.2	27.2	27.2	58	14.4	2	7	270	0.00	30.573 
00:40	27.0	27.0	27.0	57	13.8	2	7	315	0.00	30.573 
00:45	26.9	26.9	26.9	56	13.3	2	3	270	0.00	30.572 
00:50	26.7	26.7	26.7	55	12.7	2	7	315	0.00	30.575 
00:55	26.6	26.6	26.6	56	13.0	2	6	338	0.00	30.574 
01:00	26.6	26.6	26.6	56	13.0	2	5	315	0.00	30.576 
01:05	26.4	26.4	26.4	56	12.9	1	5	270	0.00	30.576 
01:10	26.3	26.3	26.3	56	12.8	1	7	270	0.00	30.578 
01:15	26.3	26.3	26.3	56	12.8	2	4	270	0.00	30.581 
01:20	26.3	26.3	26.3	56	12.8	1	3	338	0.00	30.581 
01:25	26.1	26.1	26.1	55	12.2	1	3	338	0.00	30.585 
01:30	26.1	26.1	26.1	56	12.6	1	4	315	0.00	30.584 
01:35	26.1	26.1	26.1	56	12.6	2	5	270	0.00	30.585 
01:40	26.1	26.1	26.1	57	13.0	1	5	270	0.00	30.591 
01:45	26.0	26.0	26.0	57	12.9	1	4	270	0.00	30.594 
01:50	26.0	26.0	26.0	57	12.9	1	4	315	0.00	30.595 
01:55	25.8	25.8	25.8	56	12.3	1	4	248	0.00	30.596 
02:00	25.8	25.8	25.8	57	12.7	1	3	270	0.00	30.596 
02:05	25.8	25.8	25.8	57	12.7	1	4	315	0.00	30.594 
02:10	26.0	26.0	26.0	57	12.9	1	2	292	0.00	30.595 
02:15	26.0	26.0	26.0	58	13.3	1	2	338	0.00	30.594 
02:20	26.0	26.0	26.0	57	12.9	1	2	292	0.00	30.594 
02:25	26.0	26.0	26.0	58	13.3	1	3	248	0.00	30.595 
02:30	26.0	26.0	26.0	58	13.3	0	2	248	0.00	30.596 
02:35	26.0	26.0	26.0	57	12.9	1	3	248	0.00	30.598 
02:40	25.8	25.8	25.8	55	11.9	1	5	315	0.00	30.597 
02:45	25.8	25.8	25.8	54	11.5	2	6	270	0.00	30.597 
02:50	25.7	25.7	25.7	54	11.4	1	4	315	0.00	30.596 
02:55	25.6	25.6	25.6	54	11.3	1	3	248	0.00	30.596 
03:00	25.4	25.4	25.4	54	11.1	1	3	292	0.00	30.597 
03:05	25.4	25.4	25.4	54	11.1	1	2	292	0.00	30.596 
03:10	25.4	25.4	25.4	54	11.1	1	3	292	0.00	30.596 
03:15	25.4	25.4	25.4	55	11.5	1	5	292	0.00	30.596 
03:20	25.4	25.4	25.4	56	11.9	1	3	315	0.00	30.600 
03:25	25.4	25.4	25.4	56	11.9	1	3	292	0.00	30.604 
03:30	25.4	25.4	25.4	57	12.3	1	3	315	0.00	30.605 
03:35	25.4	25.4	25.4	58	12.7	1	3	315	0.00	30.606 
03:40	25.3	25.3	25.3	59	13.0	1	5	292	0.00	30.607 
03:45	25.3	25.3	25.3	59	13.0	1	3	248	0.00	30.603 
03:50	25.3	25.3	25.3	61	13.8	0	1	248	0.00	30.602 
03:55	25.3	25.3	25.3	63	14.5	1	3	292	0.00	30.605 
04:00	25.1	25.1	25.1	64	14.7	1	4	338	0.00	30.604 
04:05	25.0	25.0	25.0	65	14.9	1	3	270	0.00	30.603 
04:10	25.0	25.0	25.0	65	14.9	0	1	292	0.00	30.599 
04:15	25.0	25.0	25.0	66	15.3	0	2	292	0.00	30.599 
04:20	25.0	25.0	25.0	67	15.6	1	3	292	0.00	30.601 
04:25	24.8	24.8	24.8	67	15.4	1	2	22	0.00	30.600 
04:30	24.7	24.7	24.7	67	15.3	0	2	22	0.00	30.602 
04:35	24.7	24.7	24.7	67	15.3	0	1	22	0.00	30.606 
04:40	24.7	24.7	24.7	65	14.6	0	2	22	0.00	30.611 
04:45	24.7	24.7	24.7	64	14.3	0	2	315	0.00	30.613 
04:50	24.7	24.7	24.7	63	13.9	0	3	315	0.00	30.613 
04:55	24.5	24.5	24.5	62	13.4	0	3	22	0.00	30.615 
05:00	24.5	24.5	24.5	62	13.4	0	2	315	0.00	30.619 
05:05	24.5	24.5	24.5	62	13.4	0	1	315	0.00	30.624 
05:10	24.4	24.4	24.4	62	13.3	0	2	315	0.00	30.628 
05:15	24.2	24.2	24.2	60	12.3	0	2	338	0.00	30.629 
05:20	24.1	24.1	24.1	62	13.0	0	1	338	0.00	30.630 
05:25	23.9	23.9	23.9	62	12.8	0	2	338	0.00	30.629 
05:30	23.6	23.6	23.6	62	12.5	0	2	338	0.00	30.630 
05:35	23.6	23.6	23.6	62	12.5	0	3	0	0.00	30.630 
05:40	23.5	23.5	23.5	61	12.1	1	3	338	0.00	30.631 
05:45	23.5	23.5	23.5	61	12.1	0	3	0	0.00	30.631 
05:50	23.6	23.6	23.6	62	12.5	1	3	0	0.00	30.631 
05:55	23.6	23.6	23.6	61	12.2	1	3	315	0.00	30.632 
06:00	23.6	23.6	23.6	61	12.2	1	4	22	0.00	30.635 
06:05	23.6	23.6	23.6	60	11.8	1	4	270	0.00	30.642 
06:10	23.6	23.6	23.6	60	11.8	0	1	270	0.00	30.645 
06:15	23.6	23.6	23.6	61	12.2	1	3	338	0.00	30.647 
06:20	23.5	23.5	23.5	60	11.7	1	4	0	0.00	30.647 
06:25	23.5	23.5	23.5	61	12.1	0	2	0	0.00	30.647 
06:30	23.3	23.3	23.3	61	11.9	1	3	315	0.00	30.652 
06:35	23.2	23.2	23.2	60	11.4	1	4	292	0.00	30.651 
06:40	23.2	23.2	23.2	61	11.8	0	1	292	0.00	30.650 
06:45	23.0	23.0	23.0	61	11.6	0	4	270	0.00	30.649 
06:50	22.9	22.9	22.9	61	11.5	0	2	270	0.00	30.650 
06:55	22.9	22.9	22.9	61	11.5	0	2	292	0.00	30.654 
07:00	22.7	22.7	22.7	61	11.3	0	3	338	0.00	30.654 
07:05	22.5	22.5	22.5	62	11.5	0	1	338	0.00	30.658 
07:10	22.4	22.4	22.4	63	11.7	1	2	45	0.00	30.661 
07:15	22.4	22.4	22.4	63	11.7	0	2	338	0.00	30.661 
07:20	22.4	22.4	22.4	63	11.7	0	2	0	0.00	30.662 
07:25	22.4	22.4	22.4	62	11.4	1	3	0	0.00	30.663 
07:30	22.4	22.4	22.4	61	11.0	1	3	315	0.00	30.663 
07:35	22.4	22.4	22.4	61	11.0	1	3	315	0.00	30.665 
07:40	22.5	22.5	22.5	60	10.7	0	1	22	0.00	30.664 
07:45	22.7	22.7	22.7	60	10.9	0	2	22	0.00	30.667 
07:50	22.7	22.7	22.7	60	10.9	0	2	22	0.00	30.669 
07:55	22.9	22.9	22.9	60	11.1	1	2	0	0.00	30.672 
08:00	23.0	23.0	23.0	58	10.5	1	3	292	0.00	30.678 
08:05	23.2	23.2	23.2	58	10.6	0	3	22	0.00	30.682 
08:10	23.3	23.3	23.3	57	10.3	1	4	22	0.00	30.681 
08:15	23.3	23.3	23.3	54	9.1	1	3	0	0.00	30.684 
08:20	23.5	23.5	23.5	54	9.3	1	3	292	0.00	30.685 
08:25	23.5	23.5	23.5	55	9.7	1	5	315	0.00	30.687 
08:30	23.6	23.6	23.6	54	9.4	1	3	0	0.00	30.692 
08:35	23.8	23.8	23.8	53	9.2	1	5	270	0.00	30.694 
08:40	23.8	23.8	23.8	52	8.8	1	4	292	0.00	30.691 
08:45	23.8	23.8	23.8	52	8.8	1	4	270	0.00	30.690 
08:50	23.9	23.9	23.9	52	8.9	0	3	315	0.00	30.694 
08:55	24.2	24.2	24.2	52	9.1	1	3	0	0.00	30.690 
09:00	24.5	24.5	24.5	50	8.6	0	2	0	0.00	30.695 
09:05	24.7	24.7	24.7	51	9.2	0	2	0	0.00	30.694 
09:10	24.8	24.8	24.8	50	8.8	0	2	0	0.00	30.694 
09:15	25.0	25.0	25.0	50	9.0	1	3	315	0.00	30.694 
09:20	25.3	25.3	25.3	49	8.8	1	3	45	0.00	30.693 
09:25	25.4	25.4	25.4	49	8.9	1	3	68	0.00	30.694 
09:30	25.7	25.7	25.7	50	9.7	0	2	68	0.00	30.695 
09:35	26.0	26.0	26.0	49	9.5	1	5	112	0.00	30.694 
09:40	26.3	26.3	26.3	49	9.8	1	4	270	0.00	30.695 
09:45	26.6	26.6	26.6	50	10.5	1	4	22	0.00	30.693 
09:50	26.9	26.9	26.9	48	9.9	0	2	90	0.00	30.693 
09:55	26.7	26.7	26.7	49	10.1	0	2	68	0.00	30.693 
10:00	26.4	26.4	26.4	50	10.3	1	6	68	0.00	30.693 
10:05	26.1	26.1	26.1	50	10.0	2	5	112	0.00	30.692 
10:10	26.3	26.3	26.3	52	11.1	1	5	112	0.00	30.691 
10:15	26.3	26.3	26.3	53	11.5	0	3	22	0.00	30.693 
10:20	26.4	26.4	26.4	52	11.2	1	3	22	0.00	30.690 
10:25	26.7	26.7	26.7	54	12.3	1	3	270	0.00	30.689 
10:30	27.0	27.0	27.0	53	12.2	0	3	90	0.00	30.686 
10:35	26.7	26.7	26.7	53	11.9	0	3	90	0.00	30.690 
10:40	26.6	26.6	26.6	59	14.2	1	11	292	0.00	30.687 
10:45	26.3	26.3	26.3	60	14.3	1	6	270	0.00	30.692 
10:50	26.0	26.0	26.0	59	13.7	1	4	338	0.00	30.692 
10:55	25.8	25.8	25.8	61	14.2	1	6	270	0.00	30.694 
11:00	26.0	26.0	26.0	61	14.4	1	3	292	0.00	30.693 
11:05	25.7	25.7	25.7	60	13.8	1	3	338	0.00	30.693 
11:10	25.8	25.8	25.8	59	13.5	1	4	68	0.00	30.691 
11:15	26.1	26.1	26.1	59	13.8	1	3	338	0.00	30.684 
11:20	26.6	26.6	26.6	57	13.4	1	2	315	0.00	30.683 
11:25	26.7	26.7	26.7	57	13.5	1	3	0	0.00	30.682 
11:30	26.6	26.6	26.6	56	13.0	0	2	315	0.00	30.680 
11:35	26.9	26.9	26.9	57	13.7	1	4	90	0.00	30.679 
11:40	27.3	27.3	27.3	56	13.7	1	3	0	0.00	30.678 
11:45	27.8	27.8	27.8	55	13.8	0	3	0	0.00	30.675 
11:50	28.1	28.1	28.1	55	14.0	1	3	0	0.00	30.671 
11:55	28.4	28.4	28.4	54	13.9	1	4	112	0.00	30.666 
12:00	28.5	28.5	28.5	53	13.6	1	4	45	0.00	30.666 
12:05	28.4	28.4	28.4	54	13.9	1	4	90	0.00	30.664 
12:10	28.4	28.4	28.4	54	13.9	2	6	112	0.00	30.664 
12:15	28.4	28.4	28.4	53	13.5	2	5	90	0.00	30.662 
12:20	27.6	27.6	27.6	51	11.9	2	5	90	0.00	30.660 
12:25	27.9	27.9	27.9	53	13.0	1	3	90	0.00	30.658 
12:30	28.2	28.2	28.2	54	13.7	1	5	90	0.00	30.656 
12:35	28.5	28.5	28.5	53	13.6	2	5	112	0.00	30.651 
12:40	28.5	28.5	28.5	54	14.0	1	4	112	0.00	30.652 
12:45	29.0	29.0	29.0	56	15.3	2	5	90	0.00	30.648 
12:50	28.8	28.8	28.8	49	12.1	1	4	90	0.00	30.648 
12:55	29.0	29.0	29.0	54	14.5	1	2	112	0.00	30.648 
13:00	29.3	29.3	29.3	53	14.3	0	2	112	0.00	30.647 
13:05	29.4	29.4	29.4	53	14.4	1	5	45	0.00	30.649 
13:10	29.5	29.5	29.5	54	14.9	1	3	112	0.00	30.649 
13:15	29.4	29.4	29.4	50	13.1	1	4	90	0.00	30.647 
13:20	29.5	29.5	29.5	54	14.9	1	5	112	0.00	30.644 
13:25	29.7	29.7	29.7	51	13.8	1	3	22	0.00	30.636 
13:30	29.4	29.4	29.4	50	13.1	1	3	338	0.00	30.633 
13:35	29.3	29.3	29.3	51	13.4	0	2	315	0.00	30.634 
13:40	29.3	29.3	29.3	49	12.5	2	6	90	0.00	30.633 
13:45	29.1	29.1	29.1	53	14.1	1	4	112	0.00	30.632 
13:50	29.5	29.5	29.5	53	14.5	1	4	112	0.00	30.630 
13:55	29.5	29.5	29.5	50	13.2	1	3	45	0.00	30.627 
14:00	29.5	29.5	29.5	53	14.5	1	3	225	0.00	30.623 
14:05	30.0	30.0	30.0	54	15.4	1	3	112	0.00	30.621 
14:10	30.3	30.3	30.3	52	14.8	1	3	22	0.00	30.621 
14:15	30.3	30.3	30.3	50	13.9	1	4	90	0.00	30.620 
14:20	30.3	30.3	30.3	51	14.4	1	7	90	0.00	30.619 
14:25	30.6	30.6	30.6	53	15.5	0	3	68	0.00	30.618 
14:30	30.4	30.4	30.4	49	13.6	0	2	68	0.00	30.610 
14:35	30.4	30.4	30.4	50	14.0	1	6	68	0.00	30.605 
14:40	30.6	30.6	30.6	52	15.1	1	3	90	0.00	30.606 
14:45	30.1	30.1	30.1	50	13.7	3	7	90	0.00	30.610 
14:50	30.1	30.1	30.1	55	15.9	2	6	90	0.00	30.609 
14:55	30.1	30.1	30.1	52	14.6	1	4	90	0.00	30.609 
15:00	30.0	30.0	30.0	51	14.1	2	5	112	0.00	30.610 
15:05	29.8	29.8	29.8	48	12.5	2	6	112	0.00	30.611 
15:10	29.8	29.8	29.8	49	13.0	0	2	112	0.00	30.613 
15:15	29.8	29.8	29.8	49	13.0	1	5	112	0.00	30.616 
15:20	30.0	30.0	30.0	49	13.2	1	3	135	0.00	30.617 
15:25	30.1	30.1	30.1	50	13.7	0	1	338	0.00	30.615 
15:30	30.3	30.3	30.3	50	13.9	1	5	112	0.00	30.616 
15:35	30.3	30.3	30.3	53	15.2	2	4	112	0.00	30.616 
15:40	30.1	30.1	30.1	50	13.7	1	4	45	0.00	30.616 
15:45	29.7	29.7	29.7	50	13.4	1	3	68	0.00	30.616 
15:50	29.7	29.7	29.7	54	15.1	0	1	68	0.00	30.615 
15:55	30.1	30.1	30.1	50	13.7	0	3	68	0.00	30.616 
16:00	30.0	30.0	30.0	51	14.1	2	4	112	0.00	30.616 
16:05	29.7	29.7	29.7	51	13.8	1	4	112	0.00	30.616 
16:10	29.5	29.5	29.5	50	13.2	1	4	90	0.00	30.616 
16:15	29.5	29.5	29.5	51	13.6	1	3	112	0.00	30.617 
16:20	29.7	29.7	29.7	50	13.4	0	1	112	0.00	30.617 
16:25	29.8	29.8	29.8	50	13.5	0	2	112	0.00	30.615 
16:30	30.0	30.0	30.0	50	13.6	0	1	112	0.00	30.614 
16:35	30.1	30.1	30.1	49	13.3	0	2	248	0.00	30.615 
16:40	30.1	30.1	30.1	51	14.2	0	1	248	0.00	30.612 
16:45	30.3	30.3	30.3	50	13.9	0	1	248	0.00	30.612 
16:50	30.4	30.4	30.4	51	14.5	1	3	248	0.00	30.606 
16:55	30.3	30.3	30.3	50	13.9	1	4	90	0.00	30.603 
17:00	30.0	30.0	30.0	50	13.6	1	4	90	0.00	30.602 
17:05	29.8	29.8	29.8	51	13.9	1	2	90	0.00	30.604 
17:10	29.5	29.5	29.5	51	13.6	1	2	90	0.00	30.602 
17:15	29.5	29.5	29.5	53	14.5	0	2	90	0.00	30.601 
17:20	29.7	29.7	29.7	55	15.5	0	1	90	0.00	30.601 
17:25	29.7	29.7	29.7	53	14.7	0	3	90	0.00	30.600 
17:30	29.7	29.7	29.7	54	15.1	0	2	22	0.00	30.597 
17:35	29.7	29.7	29.7	53	14.7	0	1	22	0.00	30.593 
17:40	29.5	29.5	29.5	53	14.5	0	3	90	0.00	30.592 
17:45	29.5	29.5	29.5	52	14.1	0	2	90	0.00	30.594 
17:50	29.4	29.4	29.4	51	13.5	0	2	90	0.00	30.595 
17:55	29.4	29.4	29.4	51	13.5	0	1	90	0.00	30.595 
18:00	29.3	29.3	29.3	51	13.4	0	0	---	0.00	30.592 
18:05	29.3	29.3	29.3	51	13.4	0	1	90	0.00	30.591 
18:10	29.1	29.1	29.1	52	13.7	0	1	90	0.00	30.591 
18:15	29.0	29.0	29.0	54	14.5	0	1	90	0.00	30.592 
18:20	29.0	29.0	29.0	54	14.5	0	1	90	0.00	30.590 
18:25	28.8	28.8	28.8	54	14.3	0	1	90	0.00	30.588 
18:30	28.7	28.7	28.7	55	14.6	0	1	90	0.00	30.589 
18:35	28.5	28.5	28.5	55	14.4	0	1	90	0.00	30.588 
18:40	28.4	28.4	28.4	55	14.3	0	1	90	0.00	30.589 
18:45	28.4	28.4	28.4	55	14.3	0	1	90	0.00	30.590 
18:50	28.2	28.2	28.2	55	14.1	0	1	90	0.00	30.591 
18:55	28.1	28.1	28.1	55	14.0	0	2	90	0.00	30.593 
19:00	27.9	27.9	27.9	56	14.3	0	1	90	0.00	30.589 
19:05	27.9	27.9	27.9	56	14.3	0	1	90	0.00	30.590 
19:10	27.8	27.8	27.8	56	14.2	0	1	90	0.00	30.589 
19:15	27.8	27.8	27.8	57	14.6	0	0	---	0.00	30.589 
19:20	27.6	27.6	27.6	56	14.0	0	1	90	0.00	30.589 
19:25	27.6	27.6	27.6	57	14.4	0	0	---	0.00	30.590 
19:30	27.5	27.5	27.5	58	14.7	0	0	---	0.00	30.591 
19:35	27.3	27.3	27.3	58	14.5	0	0	---	0.00	30.592 
19:40	27.3	27.3	27.3	58	14.5	0	0	---	0.00	30.591 
19:45	27.2	27.2	27.2	58	14.4	0	0	---	0.00	30.591 
19:50	27.0	27.0	27.0	58	14.2	0	0	---	0.00	30.590 
19:55	27.0	27.0	27.0	59	14.6	0	0	---	0.00	30.589 
20:00	26.9	26.9	26.9	59	14.5	0	0	---	0.00	30.591 
20:05	26.7	26.7	26.7	59	14.3	0	0	---	0.00	30.591 
20:10	26.7	26.7	26.7	59	14.3	0	0	---	0.00	30.592 
20:15	26.6	26.6	26.6	59	14.2	0	0	---	0.00	30.591 
20:20	26.6	26.6	26.6	60	14.6	0	0	---	0.00	30.590 
20:25	26.6	26.6	26.6	62	15.4	0	0	---	0.00	30.591 
20:30	26.6	26.6	26.6	62	15.4	0	0	---	0.00	30.591 
20:35	26.4	26.4	26.4	62	15.2	0	0	---	0.00	30.597 
20:40	26.3	26.3	26.3	63	15.4	0	0	---	0.00	30.602 
20:45	26.3	26.3	26.3	63	15.4	0	2	90	0.00	30.601 
20:50	26.3	26.3	26.3	64	15.8	0	1	90	0.00	30.599 
20:55	26.3	26.3	26.3	64	15.8	0	0	---	0.00	30.600 
21:00	26.3	26.3	26.3	64	15.8	0	0	---	0.00	30.600 
21:05	26.1	26.1	26.1	64	15.6	0	0	---	0.00	30.598 
21:10	26.0	26.0	26.0	64	15.5	0	0	---	0.00	30.602 
21:15	25.8	25.8	25.8	64	15.3	0	0	---	0.00	30.597 
21:20	25.7	25.7	25.7	64	15.2	0	0	---	0.00	30.599 
21:25	25.4	25.4	25.4	65	15.3	0	0	---	0.00	30.601 
21:30	25.3	25.3	25.3	65	15.2	0	0	---	0.00	30.600 
21:35	25.1	25.1	25.1	66	15.4	0	0	---	0.00	30.598 
21:40	25.0	25.0	25.0	67	15.6	0	0	---	0.00	30.603 
21:45	24.7	24.7	24.7	68	15.7	0	0	---	0.00	30.603 
21:50	24.5	24.5	24.5	68	15.5	0	0	---	0.00	30.604 
21:55	24.4	24.4	24.4	69	15.7	0	0	---	0.00	30.602 
22:00	24.2	24.2	24.2	69	15.5	0	0	---	0.00	30.596 
22:05	24.1	24.1	24.1	70	15.8	0	0	---	0.00	30.594 
22:10	23.9	23.9	23.9	70	15.6	0	0	---	0.00	30.591 
22:15	23.8	23.8	23.8	71	15.8	0	0	---	0.00	30.592 
22:20	23.6	23.6	23.6	72	15.9	0	0	---	0.00	30.593 
22:25	23.5	23.5	23.5	72	15.8	0	0	---	0.00	30.590 
22:30	23.3	23.3	23.3	73	15.9	0	0	---	0.00	30.591 
22:35	23.2	23.2	23.2	74	16.2	0	0	---	0.00	30.590 
22:40	23.0	23.0	23.0	74	16.0	0	0	---	0.00	30.588 
22:45	22.9	22.9	22.9	75	16.2	0	0	---	0.00	30.588 
22:50	22.7	22.7	22.7	76	16.3	0	0	---	0.00	30.588 
22:55	22.5	22.5	22.5	76	16.1	0	0	---	0.00	30.586 
23:00	22.4	22.4	22.4	77	16.3	0	0	---	0.00	30.586 
23:05	22.2	22.2	22.2	77	16.1	0	0	---	0.00	30.583 
23:10	21.9	21.9	21.9	78	16.1	0	0	---	0.00	30.578 
23:15	21.8	21.8	21.8	78	16.0	0	0	---	0.00	30.580 
23:20	21.6	21.6	21.6	79	16.1	0	0	---	0.00	30.579 
23:25	21.6	21.6	21.6	80	16.4	0	0	---	0.00	30.576 
23:30	21.4	21.4	21.4	80	16.2	0	0	---	0.00	30.574 
23:35	21.4	21.4	21.4	81	16.5	0	0	---	0.00	30.574 
23:40	21.3	21.3	21.3	81	16.4	0	0	---	0.00	30.573 
23:45	21.3	21.3	21.3	82	16.7	0	0	---	0.00	30.573 
23:50	21.3	21.3	21.3	82	16.7	0	0	---	0.00	30.570 
23:55	21.1	21.1	21.1	82	16.5	0	0	---	0.00	30.567 

CoCoRaHS
IN-AL-39
A2 Web Hosting
Creative Commons License
GoDaddy
search engine by freefind advanced

loaded 2018-11-20 06:54:31 • last modified 2010-11-18 10:43:29
Privacy PolicyDisclaimer
• wx.awcolley.com is powered by PmWiki v.2002016 •
• all content (unless otherwise noted) © 2018 A W Colley